Yerevan/Zvartnots International Airport

Airport
ICAO code: 
UDYZ
IATA Code: 
EVN
Summary
ICAO Region: 
APAC
Territory: 
Location: 
Zvartnots,
Serving: 
Yerevan
Elevation: 
2838 ft
Coordinates: 
Aerial View: 
40° 8' 50" N, 44° 23' 45" E
Metar
Observation
UDYZ 060100Z VRB01KT 3000 BR NSC M04/M06 Q1020 R09/010070 NOSIG
Station
ZVARTNOTS
Date/Time
2021-12-06 01:00:00
Wind speed
01 kts
Lowest cloud amount
nil significant cloud
Temperature
-4°C
Dew point
-6°C
Humidity
85%
QNH
1020 hPa
Weather condition
n/a

Description

Zvartnots International airport is located near Zvartnots, 10 km west of Yerevan, the capital city of Armenia.

Climatology

Cold Semi-arid climate (Köppen climate classification BSk). - Hot, sometimes extremely hot summers and cold, sometimes very cold winters. Some snowfall during the winter. Areas featuring cold semi-arid climates are sometimes subject to major temperature swings during a 24 hour period.

Runways

Designator Length Width Surface Rops
9/27 3849 56 ASP Yes/Yes
Airport map: 
Aerial View: 

Accidents and Serious Incidents at or in the vicinity of UDYZ

SKYbrary Partners:

Safety knowledge contributed by: